sensor_id;sensor_type;location;lat;lon;timestamp;P1;durP1;ratioP1;P2;durP2;ratioP2
22557;SDS011;11445;53.816;8.902;2022-12-18T00:01:38;55.80;;;23.23;;
22557;SDS011;11445;53.816;8.902;2022-12-18T00:04:06;60.95;;;23.75;;
22557;SDS011;11445;53.816;8.902;2022-12-18T00:06:35;65.82;;;22.70;;
22557;SDS011;11445;53.816;8.902;2022-12-18T00:09:02;58.22;;;22.75;;
22557;SDS011;11445;53.816;8.902;2022-12-18T00:11:30;56.92;;;23.02;;
22557;SDS011;11445;53.816;8.902;2022-12-18T00:13:58;54.00;;;22.58;;
22557;SDS011;11445;53.816;8.902;2022-12-18T00:16:26;56.22;;;23.55;;
22557;SDS011;11445;53.816;8.902;2022-12-18T00:18:54;59.67;;;22.67;;
22557;SDS011;11445;53.816;8.902;2022-12-18T00:21:25;57.58;;;22.33;;
22557;SDS011;11445;53.816;8.902;2022-12-18T00:23:55;55.35;;;22.60;;
22557;SDS011;11445;53.816;8.902;2022-12-18T00:26:23;52.38;;;22.63;;
22557;SDS011;11445;53.816;8.902;2022-12-18T00:28:51;54.55;;;22.27;;
22557;SDS011;11445;53.816;8.902;2022-12-18T00:31:21;65.97;;;22.92;;
22557;SDS011;11445;53.816;8.902;2022-12-18T00:33:49;61.53;;;23.42;;
22557;SDS011;11445;53.816;8.902;2022-12-18T00:36:17;60.17;;;22.70;;
22557;SDS011;11445;53.816;8.902;2022-12-18T00:38:46;58.30;;;23.83;;
22557;SDS011;11445;53.816;8.902;2022-12-18T00:41:16;60.78;;;24.63;;
22557;SDS011;11445;53.816;8.902;2022-12-18T00:44:05;65.22;;;27.10;;
22557;SDS011;11445;53.816;8.902;2022-12-18T00:46:32;66.15;;;26.83;;
22557;SDS011;11445;53.816;8.902;2022-12-18T00:48:59;65.50;;;25.55;;
22557;SDS011;11445;53.816;8.902;2022-12-18T00:51:27;59.75;;;24.33;;
22557;SDS011;11445;53.816;8.902;2022-12-18T00:53:54;63.33;;;25.55;;
22557;SDS011;11445;53.816;8.902;2022-12-18T00:56:22;62.92;;;25.17;;
22557;SDS011;11445;53.816;8.902;2022-12-18T00:58:50;57.78;;;23.13;;
22557;SDS011;11445;53.816;8.902;2022-12-18T01:01:17;58.78;;;22.98;;
22557;SDS011;11445;53.816;8.902;2022-12-18T01:03:44;62.63;;;23.38;;
22557;SDS011;11445;53.816;8.902;2022-12-18T01:06:13;54.60;;;23.58;;
22557;SDS011;11445;53.816;8.902;2022-12-18T01:08:40;58.83;;;23.75;;
22557;SDS011;11445;53.816;8.902;2022-12-18T01:11:09;64.20;;;23.05;;
22557;SDS011;11445;53.816;8.902;2022-12-18T01:13:38;64.63;;;24.50;;
22557;SDS011;11445;53.816;8.902;2022-12-18T01:16:05;53.42;;;22.00;;
22557;SDS011;11445;53.816;8.902;2022-12-18T01:18:34;57.47;;;24.38;;
22557;SDS011;11445;53.816;8.902;2022-12-18T01:21:02;58.53;;;23.42;;
22557;SDS011;11445;53.816;8.902;2022-12-18T01:23:32;57.40;;;23.65;;
22557;SDS011;11445;53.816;8.902;2022-12-18T01:26:03;57.97;;;23.60;;
22557;SDS011;11445;53.816;8.902;2022-12-18T01:28:31;58.67;;;24.33;;
22557;SDS011;11445;53.816;8.902;2022-12-18T01:31:09;66.00;;;23.98;;
22557;SDS011;11445;53.816;8.902;2022-12-18T01:33:38;55.38;;;23.08;;
22557;SDS011;11445;53.816;8.902;2022-12-18T01:36:05;59.22;;;24.05;;
22557;SDS011;11445;53.816;8.902;2022-12-18T01:38:32;60.95;;;23.95;;
22557;SDS011;11445;53.816;8.902;2022-12-18T01:40:59;58.90;;;24.75;;
22557;SDS011;11445;53.816;8.902;2022-12-18T01:43:43;65.68;;;24.50;;
22557;SDS011;11445;53.816;8.902;2022-12-18T01:46:17;62.22;;;22.73;;
22557;SDS011;11445;53.816;8.902;2022-12-18T01:48:49;63.78;;;24.40;;
22557;SDS011;11445;53.816;8.902;2022-12-18T01:51:18;67.88;;;24.35;;
22557;SDS011;11445;53.816;8.902;2022-12-18T01:53:46;59.35;;;23.13;;
22557;SDS011;11445;53.816;8.902;2022-12-18T01:56:14;56.58;;;22.45;;
22557;SDS011;11445;53.816;8.902;2022-12-18T01:58:48;60.42;;;24.00;;
22557;SDS011;11445;53.816;8.902;2022-12-18T02:01:22;50.63;;;22.45;;
22557;SDS011;11445;53.816;8.902;2022-12-18T02:03:49;58.15;;;22.30;;
22557;SDS011;11445;53.816;8.902;2022-12-18T02:06:19;58.35;;;23.73;;
22557;SDS011;11445;53.816;8.902;2022-12-18T02:08:53;62.63;;;23.85;;
22557;SDS011;11445;53.816;8.902;2022-12-18T02:11:32;51.83;;;23.40;;
22557;SDS011;11445;53.816;8.902;2022-12-18T02:14:08;51.85;;;23.13;;
22557;SDS011;11445;53.816;8.902;2022-12-18T02:16:44;52.55;;;20.52;;
22557;SDS011;11445;53.816;8.902;2022-12-18T02:19:22;60.38;;;23.30;;
22557;SDS011;11445;53.816;8.902;2022-12-18T02:22:11;55.20;;;23.90;;
22557;SDS011;11445;53.816;8.902;2022-12-18T02:24:53;47.20;;;20.88;;
22557;SDS011;11445;53.816;8.902;2022-12-18T02:27:27;70.88;;;24.42;;
22557;SDS011;11445;53.816;8.902;2022-12-18T02:29:57;61.65;;;24.10;;
22557;SDS011;11445;53.816;8.902;2022-12-18T02:32:26;55.13;;;22.63;;
22557;SDS011;11445;53.816;8.902;2022-12-18T02:34:55;57.97;;;23.63;;
22557;SDS011;11445;53.816;8.902;2022-12-18T02:37:23;59.03;;;23.60;;
22557;SDS011;11445;53.816;8.902;2022-12-18T02:39:53;53.88;;;23.02;;
22557;SDS011;11445;53.816;8.902;2022-12-18T02:42:23;62.00;;;23.90;;
22557;SDS011;11445;53.816;8.902;2022-12-18T02:44:53;58.50;;;24.05;;
22557;SDS011;11445;53.816;8.902;2022-12-18T02:47:24;52.78;;;22.05;;
22557;SDS011;11445;53.816;8.902;2022-12-18T02:49:56;56.00;;;23.35;;
22557;SDS011;11445;53.816;8.902;2022-12-18T02:52:30;57.78;;;23.33;;
22557;SDS011;11445;53.816;8.902;2022-12-18T02:55:06;59.00;;;23.35;;
22557;SDS011;11445;53.816;8.902;2022-12-18T02:57:45;49.13;;;21.65;;
22557;SDS011;11445;53.816;8.902;2022-12-18T03:00:18;55.17;;;21.58;;
22557;SDS011;11445;53.816;8.902;2022-12-18T03:02:48;61.92;;;24.50;;
22557;SDS011;11445;53.816;8.902;2022-12-18T03:05:22;58.63;;;23.52;;
22557;SDS011;11445;53.816;8.902;2022-12-18T03:07:56;59.25;;;22.58;;
22557;SDS011;11445;53.816;8.902;2022-12-18T03:10:26;51.67;;;22.67;;
22557;SDS011;11445;53.816;8.902;2022-12-18T03:12:59;58.42;;;22.33;;
22557;SDS011;11445;53.816;8.902;2022-12-18T03:15:31;50.58;;;21.75;;
22557;SDS011;11445;53.816;8.902;2022-12-18T03:18:02;48.63;;;21.35;;
22557;SDS011;11445;53.816;8.902;2022-12-18T03:20:34;48.50;;;21.08;;
22557;SDS011;11445;53.816;8.902;2022-12-18T03:23:04;57.35;;;21.73;;
22557;SDS011;11445;53.816;8.902;2022-12-18T03:25:35;54.85;;;23.50;;
22557;SDS011;11445;53.816;8.902;2022-12-18T03:28:07;47.50;;;21.48;;
22557;SDS011;11445;53.816;8.902;2022-12-18T03:30:40;56.57;;;22.37;;
22557;SDS011;11445;53.816;8.902;2022-12-18T03:33:10;51.83;;;21.75;;
22557;SDS011;11445;53.816;8.902;2022-12-18T03:35:43;52.13;;;21.23;;
22557;SDS011;11445;53.816;8.902;2022-12-18T03:38:11;56.88;;;21.55;;
22557;SDS011;11445;53.816;8.902;2022-12-18T03:40:42;49.00;;;21.65;;
22557;SDS011;11445;53.816;8.902;2022-12-18T03:43:18;47.88;;;21.73;;
22557;SDS011;11445;53.816;8.902;2022-12-18T03:45:54;46.72;;;21.95;;
22557;SDS011;11445;53.816;8.902;2022-12-18T03:48:29;54.38;;;22.83;;
22557;SDS011;11445;53.816;8.902;2022-12-18T03:51:01;52.83;;;21.95;;
22557;SDS011;11445;53.816;8.902;2022-12-18T03:53:34;49.25;;;21.38;;
22557;SDS011;11445;53.816;8.902;2022-12-18T03:56:07;51.42;;;21.38;;
22557;SDS011;11445;53.816;8.902;2022-12-18T03:58:36;48.47;;;21.75;;
22557;SDS011;11445;53.816;8.902;2022-12-18T04:01:12;55.20;;;22.42;;
22557;SDS011;11445;53.816;8.902;2022-12-18T04:03:41;50.28;;;22.55;;
22557;SDS011;11445;53.816;8.902;2022-12-18T04:06:10;51.38;;;23.15;;
22557;SDS011;11445;53.816;8.902;2022-12-18T04:08:38;49.30;;;23.15;;
22557;SDS011;11445;53.816;8.902;2022-12-18T04:11:05;50.03;;;21.27;;
22557;SDS011;11445;53.816;8.902;2022-12-18T04:13:33;51.17;;;22.45;;
22557;SDS011;11445;53.816;8.902;2022-12-18T04:16:02;53.53;;;23.02;;
22557;SDS011;11445;53.816;8.902;2022-12-18T04:18:31;56.38;;;21.90;;
22557;SDS011;11445;53.816;8.902;2022-12-18T04:20:58;46.72;;;21.45;;
22557;SDS011;11445;53.816;8.902;2022-12-18T04:23:25;54.30;;;23.67;;
22557;SDS011;11445;53.816;8.902;2022-12-18T04:25:52;54.20;;;22.13;;
22557;SDS011;11445;53.816;8.902;2022-12-18T04:28:19;52.83;;;21.50;;
22557;SDS011;11445;53.816;8.902;2022-12-18T04:30:49;48.85;;;21.55;;
22557;SDS011;11445;53.816;8.902;2022-12-18T04:33:16;46.20;;;22.70;;
22557;SDS011;11445;53.816;8.902;2022-12-18T04:35:44;52.33;;;21.45;;
22557;SDS011;11445;53.816;8.902;2022-12-18T04:38:11;43.03;;;19.77;;
22557;SDS011;11445;53.816;8.902;2022-12-18T04:40:39;49.70;;;20.80;;
22557;SDS011;11445;53.816;8.902;2022-12-18T04:43:06;38.17;;;18.10;;
22557;SDS011;11445;53.816;8.902;2022-12-18T04:45:33;43.70;;;21.67;;
22557;SDS011;11445;53.816;8.902;2022-12-18T04:48:00;45.00;;;21.52;;
22557;SDS011;11445;53.816;8.902;2022-12-18T04:50:28;47.53;;;21.60;;
22557;SDS011;11445;53.816;8.902;2022-12-18T04:52:56;45.72;;;20.38;;
22557;SDS011;11445;53.816;8.902;2022-12-18T04:55:26;40.53;;;19.95;;
22557;SDS011;11445;53.816;8.902;2022-12-18T04:57:54;41.20;;;19.17;;
22557;SDS011;11445;53.816;8.902;2022-12-18T05:00:21;50.05;;;20.77;;
22557;SDS011;11445;53.816;8.902;2022-12-18T05:02:48;48.33;;;20.48;;
22557;SDS011;11445;53.816;8.902;2022-12-18T05:05:15;42.10;;;19.45;;
22557;SDS011;11445;53.816;8.902;2022-12-18T05:07:42;52.40;;;19.80;;
22557;SDS011;11445;53.816;8.902;2022-12-18T05:10:10;40.15;;;17.60;;
22557;SDS011;11445;53.816;8.902;2022-12-18T05:12:37;43.72;;;20.42;;
22557;SDS011;11445;53.816;8.902;2022-12-18T05:15:23;39.85;;;19.80;;
22557;SDS011;11445;53.816;8.902;2022-12-18T05:17:50;41.78;;;19.80;;
22557;SDS011;11445;53.816;8.902;2022-12-18T05:20:17;40.08;;;19.02;;
22557;SDS011;11445;53.816;8.902;2022-12-18T05:22:44;44.33;;;18.80;;
22557;SDS011;11445;53.816;8.902;2022-12-18T05:25:13;40.17;;;18.65;;
22557;SDS011;11445;53.816;8.902;2022-12-18T05:27:40;41.53;;;19.60;;
22557;SDS011;11445;53.816;8.902;2022-12-18T05:30:07;44.00;;;19.40;;
22557;SDS011;11445;53.816;8.902;2022-12-18T05:32:35;37.13;;;19.92;;
22557;SDS011;11445;53.816;8.902;2022-12-18T05:35:02;33.75;;;17.98;;
22557;SDS011;11445;53.816;8.902;2022-12-18T05:37:30;39.33;;;19.70;;
22557;SDS011;11445;53.816;8.902;2022-12-18T05:39:57;46.90;;;19.80;;
22557;SDS011;11445;53.816;8.902;2022-12-18T05:42:26;40.28;;;19.40;;
22557;SDS011;11445;53.816;8.902;2022-12-18T05:44:53;35.22;;;18.13;;
22557;SDS011;11445;53.816;8.902;2022-12-18T05:47:20;38.20;;;18.70;;
22557;SDS011;11445;53.816;8.902;2022-12-18T05:49:47;34.88;;;18.33;;
22557;SDS011;11445;53.816;8.902;2022-12-18T05:52:13;35.40;;;17.30;;
22557;SDS011;11445;53.816;8.902;2022-12-18T05:54:40;41.33;;;17.77;;
22557;SDS011;11445;53.816;8.902;2022-12-18T05:57:07;37.58;;;18.55;;
22557;SDS011;11445;53.816;8.902;2022-12-18T05:59:36;40.13;;;17.40;;
22557;SDS011;11445;53.816;8.902;2022-12-18T06:02:03;38.63;;;17.83;;
22557;SDS011;11445;53.816;8.902;2022-12-18T06:04:31;34.92;;;17.48;;
22557;SDS011;11445;53.816;8.902;2022-12-18T06:06:58;35.55;;;18.30;;
22557;SDS011;11445;53.816;8.902;2022-12-18T06:09:32;29.67;;;16.27;;
22557;SDS011;11445;53.816;8.902;2022-12-18T06:11:59;35.25;;;17.38;;
22557;SDS011;11445;53.816;8.902;2022-12-18T06:14:26;34.38;;;16.25;;
22557;SDS011;11445;53.816;8.902;2022-12-18T06:16:55;35.03;;;15.65;;
22557;SDS011;11445;53.816;8.902;2022-12-18T06:19:22;29.63;;;16.02;;
22557;SDS011;11445;53.816;8.902;2022-12-18T06:21:49;30.23;;;15.57;;
22557;SDS011;11445;53.816;8.902;2022-12-18T06:24:16;32.10;;;15.63;;
22557;SDS011;11445;53.816;8.902;2022-12-18T06:26:43;33.40;;;16.45;;
22557;SDS011;11445;53.816;8.902;2022-12-18T06:29:10;31.70;;;15.65;;
22557;SDS011;11445;53.816;8.902;2022-12-18T06:31:37;35.30;;;16.58;;
22557;SDS011;11445;53.816;8.902;2022-12-18T06:34:05;32.08;;;15.95;;
22557;SDS011;11445;53.816;8.902;2022-12-18T06:36:32;30.73;;;15.52;;
22557;SDS011;11445;53.816;8.902;2022-12-18T06:38:59;29.90;;;14.93;;
22557;SDS011;11445;53.816;8.902;2022-12-18T06:41:26;28.08;;;14.50;;
22557;SDS011;11445;53.816;8.902;2022-12-18T06:43:53;27.73;;;14.88;;
22557;SDS011;11445;53.816;8.902;2022-12-18T06:46:20;27.10;;;14.02;;
22557;SDS011;11445;53.816;8.902;2022-12-18T06:48:48;27.45;;;13.90;;
22557;SDS011;11445;53.816;8.902;2022-12-18T06:51:18;36.60;;;15.00;;
22557;SDS011;11445;53.816;8.902;2022-12-18T06:53:46;27.20;;;13.98;;
22557;SDS011;11445;53.816;8.902;2022-12-18T06:56:13;25.95;;;14.15;;
22557;SDS011;11445;53.816;8.902;2022-12-18T06:58:40;27.40;;;13.18;;
22557;SDS011;11445;53.816;8.902;2022-12-18T07:01:08;26.20;;;13.65;;
22557;SDS011;11445;53.816;8.902;2022-12-18T07:03:36;28.02;;;14.32;;
22557;SDS011;11445;53.816;8.902;2022-12-18T07:06:04;29.55;;;12.90;;
22557;SDS011;11445;53.816;8.902;2022-12-18T07:08:32;22.10;;;12.30;;
22557;SDS011;11445;53.816;8.902;2022-12-18T07:11:02;23.35;;;13.00;;
22557;SDS011;11445;53.816;8.902;2022-12-18T07:13:30;26.42;;;12.68;;
22557;SDS011;11445;53.816;8.902;2022-12-18T07:16:03;24.52;;;12.80;;
22557;SDS011;11445;53.816;8.902;2022-12-18T07:18:31;25.95;;;11.73;;
22557;SDS011;11445;53.816;8.902;2022-12-18T07:20:59;24.58;;;12.85;;
22557;SDS011;11445;53.816;8.902;2022-12-18T07:23:29;27.27;;;12.45;;
22557;SDS011;11445;53.816;8.902;2022-12-18T07:26:00;29.00;;;12.90;;
22557;SDS011;11445;53.816;8.902;2022-12-18T07:28:28;26.02;;;12.50;;
22557;SDS011;11445;53.816;8.902;2022-12-18T07:30:56;23.25;;;11.68;;
22557;SDS011;11445;53.816;8.902;2022-12-18T07:33:23;24.85;;;12.18;;
22557;SDS011;11445;53.816;8.902;2022-12-18T07:35:51;28.50;;;12.65;;
22557;SDS011;11445;53.816;8.902;2022-12-18T07:38:18;22.00;;;11.18;;
22557;SDS011;11445;53.816;8.902;2022-12-18T07:40:46;24.02;;;10.88;;
22557;SDS011;11445;53.816;8.902;2022-12-18T07:43:13;25.30;;;11.85;;
22557;SDS011;11445;53.816;8.902;2022-12-18T07:45:40;25.02;;;12.77;;
22557;SDS011;11445;53.816;8.902;2022-12-18T07:48:08;24.73;;;11.85;;
22557;SDS011;11445;53.816;8.902;2022-12-18T07:50:35;21.35;;;10.65;;
22557;SDS011;11445;53.816;8.902;2022-12-18T07:53:02;21.77;;;10.90;;
22557;SDS011;11445;53.816;8.902;2022-12-18T07:55:30;21.92;;;10.95;;
22557;SDS011;11445;53.816;8.902;2022-12-18T07:58:01;21.48;;;10.50;;
22557;SDS011;11445;53.816;8.902;2022-12-18T08:00:28;21.83;;;11.05;;
22557;SDS011;11445;53.816;8.902;2022-12-18T08:02:55;20.83;;;11.60;;
22557;SDS011;11445;53.816;8.902;2022-12-18T08:05:23;19.95;;;11.18;;
22557;SDS011;11445;53.816;8.902;2022-12-18T08:07:50;19.33;;;10.55;;
22557;SDS011;11445;53.816;8.902;2022-12-18T08:10:17;20.10;;;11.25;;
22557;SDS011;11445;53.816;8.902;2022-12-18T08:12:44;22.50;;;10.57;;
22557;SDS011;11445;53.816;8.902;2022-12-18T08:15:12;22.35;;;11.02;;
22557;SDS011;11445;53.816;8.902;2022-12-18T08:17:39;20.10;;;10.57;;
22557;SDS011;11445;53.816;8.902;2022-12-18T08:20:07;23.38;;;11.10;;
22557;SDS011;11445;53.816;8.902;2022-12-18T08:22:38;21.80;;;11.20;;
22557;SDS011;11445;53.816;8.902;2022-12-18T08:25:05;19.90;;;10.43;;
22557;SDS011;11445;53.816;8.902;2022-12-18T08:27:33;18.55;;;10.55;;
22557;SDS011;11445;53.816;8.902;2022-12-18T08:30:00;21.15;;;10.80;;
22557;SDS011;11445;53.816;8.902;2022-12-18T08:32:29;25.38;;;11.55;;
22557;SDS011;11445;53.816;8.902;2022-12-18T08:34:57;20.73;;;10.32;;
22557;SDS011;11445;53.816;8.902;2022-12-18T08:37:24;25.25;;;11.40;;
22557;SDS011;11445;53.816;8.902;2022-12-18T08:39:51;25.90;;;11.30;;
22557;SDS011;11445;53.816;8.902;2022-12-18T08:42:18;19.35;;;10.95;;
22557;SDS011;11445;53.816;8.902;2022-12-18T08:45:05;21.05;;;10.95;;
22557;SDS011;11445;53.816;8.902;2022-12-18T08:47:34;23.60;;;10.90;;
22557;SDS011;11445;53.816;8.902;2022-12-18T08:50:01;19.27;;;10.05;;
22557;SDS011;11445;53.816;8.902;2022-12-18T08:52:31;22.33;;;10.75;;
22557;SDS011;11445;53.816;8.902;2022-12-18T08:54:58;18.25;;;10.68;;
22557;SDS011;11445;53.816;8.902;2022-12-18T08:57:25;20.48;;;10.38;;
22557;SDS011;11445;53.816;8.902;2022-12-18T08:59:52;19.75;;;10.10;;
22557;SDS011;11445;53.816;8.902;2022-12-18T09:02:19;20.95;;;10.32;;
22557;SDS011;11445;53.816;8.902;2022-12-18T09:04:47;22.50;;;10.00;;
22557;SDS011;11445;53.816;8.902;2022-12-18T09:07:14;18.48;;;9.52;;
22557;SDS011;11445;53.816;8.902;2022-12-18T09:09:41;18.77;;;9.65;;
22557;SDS011;11445;53.816;8.902;2022-12-18T09:12:08;18.50;;;9.30;;
22557;SDS011;11445;53.816;8.902;2022-12-18T09:14:36;16.00;;;9.43;;
22557;SDS011;11445;53.816;8.902;2022-12-18T09:17:03;19.00;;;9.75;;
22557;SDS011;11445;53.816;8.902;2022-12-18T09:19:30;22.27;;;10.77;;
22557;SDS011;11445;53.816;8.902;2022-12-18T09:21:58;20.10;;;10.35;;
22557;SDS011;11445;53.816;8.902;2022-12-18T09:24:25;17.92;;;10.05;;
22557;SDS011;11445;53.816;8.902;2022-12-18T09:26:52;23.88;;;10.02;;
22557;SDS011;11445;53.816;8.902;2022-12-18T09:29:20;18.13;;;10.15;;
22557;SDS011;11445;53.816;8.902;2022-12-18T09:31:47;20.27;;;10.63;;
22557;SDS011;11445;53.816;8.902;2022-12-18T09:34:15;19.80;;;10.60;;
22557;SDS011;11445;53.816;8.902;2022-12-18T09:36:42;26.02;;;10.02;;
22557;SDS011;11445;53.816;8.902;2022-12-18T09:39:11;18.00;;;10.02;;
22557;SDS011;11445;53.816;8.902;2022-12-18T09:41:39;21.08;;;9.60;;
22557;SDS011;11445;53.816;8.902;2022-12-18T09:44:12;18.00;;;10.05;;
22557;SDS011;11445;53.816;8.902;2022-12-18T09:46:45;20.88;;;10.00;;
22557;SDS011;11445;53.816;8.902;2022-12-18T09:49:17;20.80;;;11.00;;
22557;SDS011;11445;53.816;8.902;2022-12-18T09:51:49;23.83;;;11.57;;
22557;SDS011;11445;53.816;8.902;2022-12-18T09:54:22;21.30;;;9.93;;
22557;SDS011;11445;53.816;8.902;2022-12-18T09:56:56;27.05;;;11.73;;
22557;SDS011;11445;53.816;8.902;2022-12-18T09:59:23;22.38;;;12.25;;
22557;SDS011;11445;53.816;8.902;2022-12-18T10:01:52;26.48;;;13.05;;
22557;SDS011;11445;53.816;8.902;2022-12-18T10:04:19;18.90;;;10.05;;
22557;SDS011;11445;53.816;8.902;2022-12-18T10:06:48;18.02;;;9.90;;
22557;SDS011;11445;53.816;8.902;2022-12-18T10:09:27;19.92;;;8.90;;
22557;SDS011;11445;53.816;8.902;2022-12-18T10:12:00;17.30;;;9.45;;
22557;SDS011;11445;53.816;8.902;2022-12-18T10:14:36;17.27;;;9.52;;
22557;SDS011;11445;53.816;8.902;2022-12-18T10:17:14;20.08;;;10.75;;
22557;SDS011;11445;53.816;8.902;2022-12-18T10:19:49;18.35;;;9.50;;
22557;SDS011;11445;53.816;8.902;2022-12-18T10:22:33;20.05;;;9.13;;
22557;SDS011;11445;53.816;8.902;2022-12-18T10:25:13;19.33;;;10.68;;
22557;SDS011;11445;53.816;8.902;2022-12-18T10:27:46;21.45;;;10.52;;
22557;SDS011;11445;53.816;8.902;2022-12-18T10:30:15;17.42;;;9.93;;
22557;SDS011;11445;53.816;8.902;2022-12-18T10:32:44;19.23;;;9.80;;
22557;SDS011;11445;53.816;8.902;2022-12-18T10:35:15;17.75;;;9.52;;
22557;SDS011;11445;53.816;8.902;2022-12-18T10:38:06;24.77;;;10.75;;
22557;SDS011;11445;53.816;8.902;2022-12-18T10:40:52;17.40;;;10.15;;
22557;SDS011;11445;53.816;8.902;2022-12-18T10:43:21;19.60;;;9.48;;
22557;SDS011;11445;53.816;8.902;2022-12-18T10:45:58;17.73;;;9.88;;
22557;SDS011;11445;53.816;8.902;2022-12-18T10:48:31;21.75;;;9.60;;
22557;SDS011;11445;53.816;8.902;2022-12-18T10:51:01;21.20;;;9.77;;
22557;SDS011;11445;53.816;8.902;2022-12-18T10:53:30;29.08;;;10.13;;
22557;SDS011;11445;53.816;8.902;2022-12-18T10:56:03;16.23;;;8.90;;
22557;SDS011;11445;53.816;8.902;2022-12-18T10:58:33;18.17;;;9.85;;
22557;SDS011;11445;53.816;8.902;2022-12-18T11:01:03;18.90;;;9.82;;
22557;SDS011;11445;53.816;8.902;2022-12-18T11:03:32;17.45;;;9.63;;
22557;SDS011;11445;53.816;8.902;2022-12-18T11:06:02;18.20;;;9.77;;
22557;SDS011;11445;53.816;8.902;2022-12-18T11:08:31;24.15;;;9.80;;
22557;SDS011;11445;53.816;8.902;2022-12-18T11:10:58;19.65;;;10.38;;
22557;SDS011;11445;53.816;8.902;2022-12-18T11:13:28;23.63;;;11.07;;
22557;SDS011;11445;53.816;8.902;2022-12-18T11:15:56;23.70;;;11.73;;
22557;SDS011;11445;53.816;8.902;2022-12-18T11:18:25;25.50;;;11.63;;
22557;SDS011;11445;53.816;8.902;2022-12-18T11:20:55;21.77;;;10.35;;
22557;SDS011;11445;53.816;8.902;2022-12-18T11:23:25;21.95;;;9.32;;
22557;SDS011;11445;53.816;8.902;2022-12-18T11:25:54;16.83;;;9.32;;
22557;SDS011;11445;53.816;8.902;2022-12-18T11:28:29;25.55;;;9.85;;
22557;SDS011;11445;53.816;8.902;2022-12-18T11:31:09;17.73;;;9.48;;
22557;SDS011;11445;53.816;8.902;2022-12-18T11:33:43;17.73;;;9.52;;
22557;SDS011;11445;53.816;8.902;2022-12-18T11:36:13;17.17;;;9.82;;
22557;SDS011;11445;53.816;8.902;2022-12-18T11:38:42;22.30;;;10.48;;
22557;SDS011;11445;53.816;8.902;2022-12-18T11:41:13;21.15;;;10.35;;
22557;SDS011;11445;53.816;8.902;2022-12-18T11:44:11;18.35;;;9.68;;
22557;SDS011;11445;53.816;8.902;2022-12-18T11:46:43;15.83;;;9.53;;
22557;SDS011;11445;53.816;8.902;2022-12-18T11:49:18;17.92;;;9.43;;
22557;SDS011;11445;53.816;8.902;2022-12-18T11:51:50;17.98;;;9.38;;
22557;SDS011;11445;53.816;8.902;2022-12-18T11:54:21;20.10;;;9.23;;
22557;SDS011;11445;53.816;8.902;2022-12-18T11:56:49;21.63;;;9.80;;
22557;SDS011;11445;53.816;8.902;2022-12-18T11:59:25;25.20;;;11.73;;
22557;SDS011;11445;53.816;8.902;2022-12-18T12:02:00;21.75;;;11.15;;
22557;SDS011;11445;53.816;8.902;2022-12-18T12:04:42;22.13;;;11.25;;
22557;SDS011;11445;53.816;8.902;2022-12-18T12:07:34;21.48;;;10.10;;
22557;SDS011;11445;53.816;8.902;2022-12-18T12:10:12;20.50;;;10.65;;
22557;SDS011;11445;53.816;8.902;2022-12-18T12:15:28;20.05;;;10.05;;
22557;SDS011;11445;53.816;8.902;2022-12-18T12:18:07;19.27;;;10.40;;
22557;SDS011;11445;53.816;8.902;2022-12-18T12:20:42;19.50;;;9.90;;
22557;SDS011;11445;53.816;8.902;2022-12-18T12:23:15;18.75;;;9.70;;
22557;SDS011;11445;53.816;8.902;2022-12-18T12:25:49;18.45;;;10.43;;
22557;SDS011;11445;53.816;8.902;2022-12-18T12:28:24;23.08;;;11.15;;
22557;SDS011;11445;53.816;8.902;2022-12-18T12:31:06;16.98;;;9.25;;
22557;SDS011;11445;53.816;8.902;2022-12-18T12:33:47;15.23;;;8.43;;
22557;SDS011;11445;53.816;8.902;2022-12-18T12:36:20;15.40;;;8.90;;
22557;SDS011;11445;53.816;8.902;2022-12-18T12:38:56;16.98;;;8.90;;
22557;SDS011;11445;53.816;8.902;2022-12-18T12:41:30;15.77;;;8.50;;
22557;SDS011;11445;53.816;8.902;2022-12-18T12:44:16;18.85;;;8.40;;
22557;SDS011;11445;53.816;8.902;2022-12-18T12:46:48;16.17;;;8.30;;
22557;SDS011;11445;53.816;8.902;2022-12-18T12:49:18;15.23;;;8.30;;
22557;SDS011;11445;53.816;8.902;2022-12-18T12:51:53;16.08;;;7.65;;
22557;SDS011;11445;53.816;8.902;2022-12-18T12:54:24;17.90;;;8.15;;
22557;SDS011;11445;53.816;8.902;2022-12-18T12:56:57;16.95;;;8.18;;
22557;SDS011;11445;53.816;8.902;2022-12-18T12:59:34;15.63;;;7.53;;
22557;SDS011;11445;53.816;8.902;2022-12-18T13:02:10;12.38;;;7.82;;
22557;SDS011;11445;53.816;8.902;2022-12-18T13:04:47;15.52;;;8.63;;
22557;SDS011;11445;53.816;8.902;2022-12-18T13:07:19;13.05;;;8.15;;
22557;SDS011;11445;53.816;8.902;2022-12-18T13:12:55;16.08;;;9.15;;
22557;SDS011;11445;53.816;8.902;2022-12-18T13:15:23;14.88;;;8.38;;
22557;SDS011;11445;53.816;8.902;2022-12-18T13:18:04;15.48;;;8.80;;
22557;SDS011;11445;53.816;8.902;2022-12-18T13:20:38;15.43;;;8.95;;
22557;SDS011;11445;53.816;8.902;2022-12-18T13:23:19;18.02;;;8.48;;
22557;SDS011;11445;53.816;8.902;2022-12-18T13:25:53;14.15;;;8.38;;
22557;SDS011;11445;53.816;8.902;2022-12-18T13:28:21;17.48;;;9.32;;
22557;SDS011;11445;53.816;8.902;2022-12-18T13:31:10;15.45;;;8.88;;
22557;SDS011;11445;53.816;8.902;2022-12-18T13:33:39;16.98;;;8.57;;
22557;SDS011;11445;53.816;8.902;2022-12-18T13:36:13;16.25;;;8.98;;
22557;SDS011;11445;53.816;8.902;2022-12-18T13:38:42;14.70;;;8.65;;
22557;SDS011;11445;53.816;8.902;2022-12-18T13:41:23;15.55;;;7.72;;
22557;SDS011;11445;53.816;8.902;2022-12-18T13:43:52;17.77;;;8.13;;
22557;SDS011;11445;53.816;8.902;2022-12-18T13:46:23;14.75;;;9.00;;
22557;SDS011;11445;53.816;8.902;2022-12-18T13:48:59;11.95;;;7.68;;
22557;SDS011;11445;53.816;8.902;2022-12-18T13:51:28;14.32;;;8.75;;
22557;SDS011;11445;53.816;8.902;2022-12-18T13:53:59;15.10;;;8.07;;
22557;SDS011;11445;53.816;8.902;2022-12-18T13:56:29;14.90;;;7.85;;
22557;SDS011;11445;53.816;8.902;2022-12-18T13:59:11;13.38;;;7.28;;
22557;SDS011;11445;53.816;8.902;2022-12-18T14:04:21;16.02;;;7.90;;
22557;SDS011;11445;53.816;8.902;2022-12-18T14:06:51;14.90;;;7.20;;
22557;SDS011;11445;53.816;8.902;2022-12-18T14:09:24;14.60;;;7.90;;
22557;SDS011;11445;53.816;8.902;2022-12-18T14:11:53;15.77;;;7.80;;
22557;SDS011;11445;53.816;8.902;2022-12-18T14:14:43;9.43;;;6.70;;
22557;SDS011;11445;53.816;8.902;2022-12-18T14:17:12;14.20;;;7.18;;
22557;SDS011;11445;53.816;8.902;2022-12-18T14:19:45;14.57;;;7.78;;
22557;SDS011;11445;53.816;8.902;2022-12-18T14:22:15;15.55;;;8.30;;
22557;SDS011;11445;53.816;8.902;2022-12-18T14:24:43;12.18;;;7.05;;
22557;SDS011;11445;53.816;8.902;2022-12-18T14:27:20;13.07;;;7.53;;
22557;SDS011;11445;53.816;8.902;2022-12-18T14:29:49;13.18;;;6.88;;
22557;SDS011;11445;53.816;8.902;2022-12-18T14:32:16;13.65;;;7.72;;
22557;SDS011;11445;53.816;8.902;2022-12-18T14:34:46;15.32;;;7.72;;
22557;SDS011;11445;53.816;8.902;2022-12-18T14:37:15;16.35;;;7.88;;
22557;SDS011;11445;53.816;8.902;2022-12-18T14:39:56;14.07;;;8.02;;
22557;SDS011;11445;53.816;8.902;2022-12-18T14:42:30;15.13;;;8.32;;
22557;SDS011;11445;53.816;8.902;2022-12-18T14:47:58;14.07;;;8.35;;
22557;SDS011;11445;53.816;8.902;2022-12-18T14:50:27;17.60;;;8.43;;
22557;SDS011;11445;53.816;8.902;2022-12-18T14:52:55;15.70;;;8.02;;
22557;SDS011;11445;53.816;8.902;2022-12-18T14:55:22;14.05;;;8.02;;
22557;SDS011;11445;53.816;8.902;2022-12-18T14:57:49;12.52;;;7.80;;